ADDS METAR Data INFO
IDs: Format: Raw Decoded Include TAF

Data at: 1156 UTC 23 Jun 2018

KOAJ 231139Z AUTO 23007KT 10SM FEW008 27/25 A2989 RMK AO2
KOAJ 231056Z AUTO 19006KT 6SM BR CLR 26/25 A2987 RMK AO2 SLP118 T02560250
KOAJ 230956Z AUTO 18006KT 5SM BR CLR 24/24 A2986 RMK AO2 SLP114 T02440239
KOAJ 230856Z AUTO 19004KT 7SM CLR 24/24 A2986 RMK AO2 SLP114 T02440239 55002
KOAJ 230756Z AUTO 23004KT 10SM CLR 25/24 A2985 RMK AO2 SLP112 T02500239
KOAJ 230656Z AUTO 19006KT 10SM CLR 26/24 A2985 RMK AO2 SLP112 T02560239
KOAJ 230556Z AUTO 18006KT 10SM CLR 26/24 A2987 RMK AO2 SLP116 T02560239 10300 20256 53003
KOAJ 230456Z AUTO 19007KT 10SM CLR 26/24 A2985 RMK AO2 SLP112 T02610239 403500239
KOAJ 230356Z AUTO 20009KT 10SM CLR 27/24 A2986 RMK AO2 SLP113 T02670239
KOAJ 230256Z AUTO 19009KT 10SM CLR 27/23 A2986 RMK AO2 SLP113 T02720233 53018
KOAJ 230156Z AUTO 19009KT 10SM CLR 28/24 A2984 RMK AO2 SLP107 T02780239
KOAJ 230056Z AUTO 18007KT 10SM CLR 28/24 A2981 RMK AO2 SLP098 T02830244
KOAJ 222356Z AUTO 18010KT 10SM CLR 30/25 A2980 RMK AO2 SLP095 T03000250 10350 20300 53004
KOAJ 222256Z AUTO 20013KT 10SM CLR 32/24 A2980 RMK AO2 SLP092 T03220244
KOAJ 222156Z AUTO 19011G15KT 10SM FEW047 33/24 A2978 RMK AO2 SLP087 T03330239
KOAJ 222056Z AUTO 24009KT 10SM FEW055 SCT070 34/23 A2979 RMK AO2 SLP090 T03440228 58010
KOAJ 221956Z AUTO 21008KT 10SM FEW050 34/23 A2980 RMK AO2 SLP094 T03440228
KOAJ 221856Z AUTO 19008KT 10SM SCT050 34/23 A2981 RMK AO2 SLP097 T03440233
KOAJ 221756Z AUTO 23013G21KT 10SM FEW048 34/23 A2982 RMK AO2 SLP101 T03440233 10344 20267 58011
KOAJ 221656Z AUTO 19007KT 10SM CLR 33/24 A2984 RMK AO2 SLP106 T03280239
KOAJ 221556Z AUTO 23009KT 10SM CLR 32/24 A2985 RMK AO2 SLP110 T03220239
KOAJ 221456Z AUTO 22006KT 10SM CLR 31/24 A2985 RMK AO2 SLP112 T03110239 51007
KOAJ 221356Z AUTO 24008KT 10SM CLR 30/24 A2985 RMK AO2 SLP110 T03000244
KOAJ 221256Z AUTO 22007KT 10SM CLR 29/24 A2985 RMK AO2 SLP110 T02890244
KOAJ 221156Z AUTO 19006KT 10SM CLR 27/24 A2983 RMK AO2 SLP105 60013 70014 T02670244 10267 20239 53014
KOAJ 221056Z AUTO 17004KT 10SM FEW095 24/24 A2981 RMK AO2 SLP097 T02440239
KOAJ 220956Z AUTO 22003KT 6SM BR CLR 24/23 A2980 RMK AO2 RAB22E34 SLP093 P0001 T02390233
KOAJ 220856Z AUTO 00000KT 9SM FEW035 SCT075 SCT110 24/24 A2979 RMK AO2 TSB05E18RAE49 SLP090 P0012 60012 T02440239 58001
KOAJ 220829Z AUTO 28003KT 6SM -RA BR FEW033 BKN065 OVC095 24/24 A2980 RMK AO2 TSB05E18 P0006
KOAJ 220816Z AUTO 22005KT 8SM VCTS -RA FEW043 BKN065 OVC100 24/24 A2981 RMK AO2 TSB05 P0001
KOAJ 220756Z AUTO 00000KT 10SM -RA BKN065 BKN080 BKN100 24/23 A2980 RMK AO2 RAB31 SLP094 P0000 T02440233
KOAJ 220656Z AUTO 00000KT 10SM CLR 24/23 A2979 RMK AO2 SLP091 T02440228
KOAJ 220556Z AUTO 07003KT 10SM FEW075 24/23 A2979 RMK AO2 SLP092 60001 T02390233 10306 20239 51003
KOAJ 220456Z AUTO 33007KT 300V020 10SM BKN065 BKN090 26/24 A2979 RMK AO2 RAE06 SLP091 P0001 T02610239 403560222
KOAJ 220356Z AUTO VRB03KT 8SM RA FEW025 SCT060 BKN120 27/26 A2980 RMK AO2 LTG DSNT NE AND E RAB53 SLP092 P0000 T02720256
KOAJ 220256Z AUTO 20008KT 10SM FEW075 28/26 A2979 RMK AO2 LTG DSNT N-E SLP089 T02780261 53007
KOAJ 220156Z AUTO 20006KT 10SM CLR 28/26 A2978 RMK AO2 LTG DSNT NE SLP086 T02830261
KOAJ 220056Z AUTO 18004KT 10SM CLR 28/26 A2977 RMK AO2 LTG DSNT NE AND E SLP082 T02830256